createdAt,value
2022-09-01T00:01:54.006Z,3.58
2022-09-01T00:04:27.237Z,3.08
2022-09-01T00:06:55.732Z,3.55
2022-09-01T00:09:24.094Z,3.78
2022-09-01T00:11:54.113Z,3.50
2022-09-01T00:14:29.567Z,3.22
2022-09-01T00:17:04.000Z,3.30
2022-09-01T00:19:33.421Z,3.22
2022-09-01T00:22:01.346Z,3.65
2022-09-01T00:24:29.104Z,3.40
2022-09-01T00:26:56.771Z,4.15
2022-09-01T00:29:25.692Z,3.38
2022-09-01T00:31:54.011Z,3.17
2022-09-01T00:34:21.071Z,3.65
2022-09-01T00:36:48.287Z,3.42
2022-09-01T00:39:16.022Z,3.58
2022-09-01T00:41:45.005Z,3.13
2022-09-01T00:44:16.555Z,2.90
2022-09-01T00:46:51.095Z,3.45
2022-09-01T00:49:46.509Z,3.45
2022-09-01T00:52:24.827Z,3.85
2022-09-01T00:54:58.275Z,3.78
2022-09-01T00:57:26.512Z,4.00
2022-09-01T01:00:11.550Z,3.78
2022-09-01T01:02:41.377Z,3.63
2022-09-01T01:05:10.594Z,3.58
2022-09-01T01:07:46.017Z,3.60
2022-09-01T01:10:18.358Z,3.97
2022-09-01T01:12:45.509Z,4.55
2022-09-01T01:15:13.865Z,4.03
2022-09-01T01:17:41.051Z,3.72
2022-09-01T01:20:27.729Z,3.67
2022-09-01T01:23:16.051Z,3.88
2022-09-01T01:25:49.874Z,4.25
2022-09-01T01:28:32.093Z,3.65
2022-09-01T01:31:06.021Z,3.45
2022-09-01T01:33:42.714Z,3.60
2022-09-01T01:36:27.029Z,3.47
2022-09-01T01:41:24.238Z,3.95
2022-09-01T01:43:51.234Z,3.83
2022-09-01T01:46:20.037Z,3.50
2022-09-01T01:48:49.098Z,4.10
2022-09-01T01:51:21.191Z,3.65
2022-09-01T01:53:52.745Z,3.85
2022-09-01T01:56:25.681Z,3.40
2022-09-01T01:58:55.469Z,4.47
2022-09-01T02:01:25.352Z,3.95
2022-09-01T02:03:54.853Z,3.60
2022-09-01T02:06:25.079Z,3.75
2022-09-01T02:08:57.997Z,3.50
2022-09-01T02:11:26.452Z,3.63
2022-09-01T02:13:57.483Z,4.45
2022-09-01T02:16:27.939Z,3.60
2022-09-01T02:18:56.314Z,4.78
2022-09-01T02:21:24.771Z,3.60
2022-09-01T02:24:01.083Z,4.07
2022-09-01T02:26:34.562Z,3.45
2022-09-01T02:29:05.870Z,3.28
2022-09-01T02:31:35.743Z,3.97
2022-09-01T02:34:04.239Z,3.75
2022-09-01T02:36:35.145Z,3.90
2022-09-01T02:39:02.714Z,5.05
2022-09-01T02:41:32.294Z,3.67
2022-09-01T02:44:02.399Z,3.60
2022-09-01T02:46:30.992Z,3.53
2022-09-01T02:49:00.774Z,3.58
2022-09-01T02:51:28.224Z,4.18
2022-09-01T02:53:55.248Z,3.63
2022-09-01T02:56:25.636Z,4.00
2022-09-01T02:58:54.346Z,3.00
2022-09-01T03:01:26.147Z,3.65
2022-09-01T03:03:56.797Z,3.60
2022-09-01T03:06:24.915Z,3.60
2022-09-01T03:08:56.650Z,3.30
2022-09-01T03:11:24.645Z,3.83
2022-09-01T03:13:53.080Z,3.25
2022-09-01T03:16:22.520Z,4.45
2022-09-01T03:18:51.083Z,3.35
2022-09-01T03:21:20.152Z,3.13
2022-09-01T03:23:49.165Z,3.08
2022-09-01T03:26:18.885Z,3.97
2022-09-01T03:28:46.568Z,3.47
2022-09-01T03:31:14.722Z,3.80
2022-09-01T03:33:42.879Z,3.33
2022-09-01T03:36:20.300Z,3.50
2022-09-01T03:38:50.137Z,3.55
2022-09-01T03:41:28.437Z,3.00
2022-09-01T03:43:58.226Z,3.22
2022-09-01T03:46:36.270Z,3.75
2022-09-01T03:49:07.877Z,4.60
2022-09-01T03:51:39.039Z,3.95
2022-09-01T03:54:06.983Z,3.80
2022-09-01T03:56:34.209Z,3.25
2022-09-01T03:59:01.365Z,4.13
2022-09-01T04:01:32.743Z,3.30
2022-09-01T04:04:01.421Z,3.58
2022-09-01T04:06:32.343Z,3.55
2022-09-01T04:09:03.306Z,3.65
2022-09-01T04:11:33.824Z,3.75
2022-09-01T04:14:01.508Z,3.70
2022-09-01T04:16:51.710Z,3.17
2022-09-01T04:19:25.889Z,3.50
2022-09-01T04:22:02.107Z,3.85
2022-09-01T04:24:43.225Z,3.63
2022-09-01T04:27:13.725Z,3.70
2022-09-01T04:29:41.899Z,4.43
2022-09-01T04:32:12.924Z,3.70
2022-09-01T04:34:43.174Z,3.15
2022-09-01T04:37:18.751Z,4.00
2022-09-01T04:39:55.660Z,3.72
2022-09-01T04:42:27.279Z,3.83
2022-09-01T04:44:57.473Z,4.13
2022-09-01T04:47:35.523Z,4.18
2022-09-01T04:50:13.850Z,4.20
2022-09-01T04:52:45.097Z,4.10
2022-09-01T04:55:24.813Z,4.20
2022-09-01T04:57:54.787Z,3.80
2022-09-01T05:00:22.815Z,4.38
2022-09-01T05:02:55.519Z,4.72
2022-09-01T05:05:25.442Z,4.00
2022-09-01T05:07:55.464Z,3.85
2022-09-01T05:10:29.194Z,4.22
2022-09-01T05:13:17.650Z,3.80
2022-09-01T05:15:47.230Z,3.95
2022-09-01T05:18:16.693Z,4.05
2022-09-01T05:20:44.548Z,3.53
2022-09-01T05:23:13.116Z,3.85
2022-09-01T05:25:43.951Z,3.47
2022-09-01T05:28:13.200Z,4.25
2022-09-01T05:30:41.954Z,3.90
2022-09-01T05:33:12.461Z,3.47
2022-09-01T05:35:44.947Z,4.18
2022-09-01T05:38:14.017Z,3.78
2022-09-01T05:40:43.723Z,3.83
2022-09-01T05:43:14.892Z,3.90
2022-09-01T05:46:05.566Z,3.90
2022-09-01T05:48:40.314Z,4.00
2022-09-01T05:51:33.425Z,3.88
2022-09-01T05:54:02.021Z,3.72
2022-09-01T05:56:32.650Z,3.88
2022-09-01T06:01:53.969Z,4.13
2022-09-01T06:04:23.159Z,4.55
2022-09-01T06:07:10.187Z,3.65
2022-09-01T06:09:45.505Z,3.95
2022-09-01T06:12:18.458Z,4.05
2022-09-01T06:14:50.571Z,3.95
2022-09-01T06:17:24.887Z,4.45
2022-09-01T06:19:55.707Z,3.42
2022-09-01T06:22:26.828Z,4.45
2022-09-01T06:24:59.544Z,3.97
2022-09-01T06:27:33.653Z,3.80
2022-09-01T06:30:02.974Z,4.80
2022-09-01T06:32:38.600Z,4.25
2022-09-01T06:35:08.490Z,4.32
2022-09-01T06:37:38.537Z,3.83
2022-09-01T06:40:10.715Z,3.70
2022-09-01T06:42:38.039Z,4.07
2022-09-01T06:45:10.351Z,3.58
2022-09-01T06:47:37.763Z,4.00
2022-09-01T06:50:08.596Z,5.57
2022-09-01T06:55:34.020Z,3.95
2022-09-01T06:58:06.581Z,3.97
2022-09-01T07:00:38.143Z,4.78
2022-09-01T07:03:09.503Z,4.13
2022-09-01T07:06:01.402Z,5.20
2022-09-01T07:14:26.633Z,4.05
2022-09-01T07:17:23.082Z,4.35
2022-09-01T07:19:55.877Z,4.82
2022-09-01T07:23:03.466Z,4.00
2022-09-01T07:25:12.860Z,4.45
2022-09-01T07:27:50.557Z,4.68
2022-09-01T07:30:20.951Z,4.05
2022-09-01T07:32:51.464Z,5.13
2022-09-01T07:35:22.543Z,5.60
2022-09-01T07:43:51.169Z,6.15
2022-09-01T07:47:19.525Z,5.20
2022-09-01T07:50:11.511Z,4.93
2022-09-01T07:52:27.065Z,4.88
2022-09-01T07:54:58.226Z,4.90
2022-09-01T07:57:25.489Z,4.00
2022-09-01T07:59:55.556Z,4.63
2022-09-01T08:02:40.630Z,4.07
2022-09-01T08:05:11.396Z,5.20
2022-09-01T08:07:55.612Z,5.15
2022-09-01T08:10:28.637Z,4.43
2022-09-01T08:12:57.119Z,4.95
2022-09-01T08:16:06.481Z,4.93
2022-09-01T08:18:14.757Z,4.82
2022-09-01T08:20:47.452Z,4.90
2022-09-01T08:23:41.725Z,4.35
2022-09-01T08:26:14.374Z,4.53
2022-09-01T08:28:46.014Z,4.43
2022-09-01T08:31:17.650Z,4.20
2022-09-01T08:33:47.527Z,2.58
2022-09-01T08:36:21.401Z,2.75
2022-09-01T08:38:51.636Z,3.08
2022-09-01T08:41:46.390Z,2.13
2022-09-01T08:44:55.464Z,1.63
2022-09-01T08:47:39.457Z,1.70
2022-09-01T08:50:11.302Z,1.60
2022-09-01T08:53:10.670Z,1.50
2022-09-01T08:55:45.180Z,1.92
2022-09-01T08:58:17.828Z,1.65
2022-09-01T09:01:31.805Z,2.00
2022-09-01T09:04:22.118Z,1.30
2022-09-01T09:07:02.309Z,1.83
2022-09-01T09:09:53.813Z,1.60
2022-09-01T09:12:54.621Z,2.33
2022-09-01T09:15:21.909Z,1.60
2022-09-01T09:18:00.445Z,1.70
2022-09-01T09:20:28.611Z,1.65
2022-09-01T09:22:59.297Z,1.95
2022-09-01T09:25:29.706Z,1.92
2022-09-01T09:28:03.812Z,1.65
2022-09-01T09:30:32.507Z,1.77
2022-09-01T09:35:52.010Z,1.25
2022-09-01T09:38:33.248Z,1.08
2022-09-01T09:41:26.511Z,1.10
2022-09-01T09:44:23.534Z,1.30
2022-09-01T09:46:50.652Z,1.13
2022-09-01T09:49:36.488Z,1.08
2022-09-01T09:52:10.742Z,1.10
2022-09-01T09:54:58.571Z,1.20
2022-09-01T09:57:25.661Z,1.10
2022-09-01T09:59:59.213Z,1.17
2022-09-01T10:02:45.142Z,1.42
2022-09-01T10:05:29.898Z,1.42
2022-09-01T10:07:58.233Z,1.30
2022-09-01T10:10:27.855Z,1.30
2022-09-01T10:12:56.101Z,1.20
2022-09-01T10:15:30.576Z,1.10
2022-09-01T10:18:19.974Z,1.08
2022-09-01T10:21:24.089Z,1.45
2022-09-01T10:23:51.040Z,1.20
2022-09-01T10:26:25.267Z,1.50
2022-09-01T10:28:54.491Z,1.50
2022-09-01T10:31:22.256Z,1.20
2022-09-01T10:33:49.991Z,1.42
2022-09-01T10:36:18.039Z,1.40
2022-09-01T10:38:50.351Z,1.63
2022-09-01T10:41:43.532Z,1.45
2022-09-01T10:44:33.698Z,1.50
2022-09-01T10:47:13.213Z,1.52
2022-09-01T10:49:47.164Z,1.45
2022-09-01T10:52:43.291Z,1.20
2022-09-01T10:55:45.254Z,1.55
2022-09-01T11:01:15.476Z,1.42
2022-09-01T11:03:53.390Z,1.65
2022-09-01T11:06:36.027Z,1.50
2022-09-01T11:09:16.483Z,1.13
2022-09-01T11:11:49.883Z,1.30
2022-09-01T11:14:23.065Z,1.40
2022-09-01T11:17:20.392Z,1.70
2022-09-01T11:20:13.444Z,1.30
2022-09-01T11:22:44.322Z,1.20
2022-09-01T11:25:12.480Z,1.20
2022-09-01T11:27:48.617Z,1.40
2022-09-01T11:30:22.945Z,1.23
2022-09-01T11:32:57.053Z,1.10
2022-09-01T11:35:28.036Z,1.10
2022-09-01T11:38:04.504Z,1.20
2022-09-01T11:40:35.268Z,1.13
2022-09-01T11:43:10.660Z,1.23
2022-09-01T11:46:14.994Z,1.15
2022-09-01T11:48:51.948Z,1.52
2022-09-01T11:51:21.453Z,0.90
2022-09-01T11:53:50.448Z,0.82
2022-09-01T11:56:26.497Z,1.17
2022-09-01T11:58:53.719Z,1.23
2022-09-01T12:01:34.345Z,1.17
2022-09-01T12:04:42.031Z,1.02
2022-09-01T12:07:50.893Z,1.00
2022-09-01T12:10:26.312Z,0.80
2022-09-01T12:13:21.421Z,0.70
2022-09-01T12:16:17.489Z,0.77
2022-09-01T12:18:58.245Z,1.10
2022-09-01T12:21:27.144Z,1.00
2022-09-01T12:24:09.645Z,1.10
2022-09-01T12:26:36.840Z,1.33
2022-09-01T12:29:04.923Z,1.13
2022-09-01T12:31:31.992Z,1.08
2022-09-01T12:33:59.309Z,1.35
2022-09-01T12:36:29.883Z,1.10
2022-09-01T12:39:17.948Z,0.80
2022-09-01T12:41:47.254Z,1.17
2022-09-01T12:44:31.876Z,1.00
2022-09-01T12:47:06.846Z,1.17
2022-09-01T12:49:50.549Z,0.90
2022-09-01T12:52:22.040Z,1.08
2022-09-01T12:54:52.050Z,1.20
2022-09-01T12:57:32.370Z,1.40
2022-09-01T13:00:15.148Z,1.20
2022-09-01T13:02:45.368Z,1.23
2022-09-01T13:05:42.964Z,1.30
2022-09-01T13:08:13.121Z,1.30
2022-09-01T13:10:46.167Z,1.02
2022-09-01T13:13:14.421Z,1.10
2022-09-01T13:15:44.214Z,1.10
2022-09-01T13:18:12.223Z,1.00
2022-09-01T13:20:39.207Z,1.00
2022-09-01T13:23:06.252Z,1.50
2022-09-01T13:25:33.313Z,1.10
2022-09-01T13:28:02.643Z,1.02
2022-09-01T13:30:30.482Z,1.00
2022-09-01T13:35:44.865Z,1.92
2022-09-01T13:38:16.109Z,1.25
2022-09-01T13:40:46.409Z,1.02
2022-09-01T13:43:19.644Z,3.05
2022-09-01T13:45:47.708Z,1.08
2022-09-01T13:48:16.971Z,1.02
2022-09-01T13:53:33.822Z,1.27
2022-09-01T13:56:00.833Z,1.35
2022-09-01T13:58:27.807Z,0.90
2022-09-01T14:00:54.949Z,1.33
2022-09-01T14:03:24.121Z,1.45
2022-09-01T14:05:51.416Z,1.13
2022-09-01T14:08:22.584Z,1.10
2022-09-01T14:10:51.967Z,1.25
2022-09-01T14:13:21.348Z,1.00
2022-09-01T14:15:49.278Z,1.13
2022-09-01T14:18:17.304Z,1.20
2022-09-01T14:20:47.394Z,0.90
2022-09-01T14:23:15.524Z,1.00
2022-09-01T14:25:49.187Z,1.10
2022-09-01T14:28:20.702Z,1.38
2022-09-01T14:33:17.046Z,1.20
2022-09-01T14:35:47.800Z,1.55
2022-09-01T14:38:15.130Z,2.45
2022-09-01T14:40:43.464Z,1.05
2022-09-01T14:43:14.141Z,1.30
2022-09-01T14:45:44.716Z,1.17
2022-09-01T14:48:14.291Z,1.27
2022-09-01T14:50:48.836Z,1.30
2022-09-01T14:53:15.884Z,1.10
2022-09-01T14:55:44.255Z,1.23
2022-09-01T14:58:11.412Z,1.40
2022-09-01T15:00:42.191Z,1.50
2022-09-01T15:03:09.788Z,1.85
2022-09-01T15:05:40.333Z,1.15
2022-09-01T15:08:09.798Z,1.42
2022-09-01T15:10:40.304Z,1.40
2022-09-01T15:13:07.751Z,1.20
2022-09-01T15:15:34.925Z,1.40
2022-09-01T15:18:02.122Z,1.50
2022-09-01T15:20:45.230Z,1.27
2022-09-01T15:23:21.252Z,0.90
2022-09-01T15:25:50.746Z,1.30
2022-09-01T15:28:17.955Z,1.23
2022-09-01T15:30:46.512Z,1.33
2022-09-01T15:33:15.921Z,2.15
2022-09-01T15:35:44.872Z,1.20
2022-09-01T15:38:17.515Z,1.25
2022-09-01T15:40:46.094Z,1.27
2022-09-01T15:43:24.750Z,1.42
2022-09-01T15:45:51.749Z,1.30
2022-09-01T15:48:18.713Z,1.70
2022-09-01T15:50:45.651Z,1.42
2022-09-01T15:53:13.367Z,1.30
2022-09-01T15:55:41.193Z,1.65
2022-09-01T15:58:09.699Z,1.35
2022-09-01T16:00:37.022Z,1.98
2022-09-01T16:03:06.334Z,2.00
2022-09-01T16:05:36.294Z,2.13
2022-09-01T16:08:09.568Z,1.60
2022-09-01T16:13:07.297Z,1.63
2022-09-01T16:15:35.311Z,2.17
2022-09-01T16:18:16.669Z,2.58
2022-09-01T16:21:08.204Z,1.65
2022-09-01T16:23:48.852Z,1.92
2022-09-01T16:26:17.784Z,1.67
2022-09-01T16:28:57.507Z,1.90
2022-09-01T16:31:28.023Z,1.60
2022-09-01T16:34:02.531Z,2.20
2022-09-01T16:36:49.197Z,2.55
2022-09-01T16:39:38.047Z,2.03
2022-09-01T16:42:31.987Z,1.73
2022-09-01T16:45:13.162Z,1.88
2022-09-01T16:48:02.309Z,2.63
2022-09-01T16:50:54.139Z,2.08
2022-09-01T16:53:31.515Z,2.15
2022-09-01T16:56:22.262Z,2.20
2022-09-01T16:58:52.703Z,2.33
2022-09-01T17:01:56.989Z,2.10
2022-09-01T17:04:36.788Z,2.10
2022-09-01T17:07:09.571Z,2.20
2022-09-01T17:09:46.292Z,2.42
2022-09-01T17:12:23.712Z,2.28
2022-09-01T17:15:02.278Z,2.55
2022-09-01T17:17:40.555Z,2.22
2022-09-01T17:20:08.615Z,2.60
2022-09-01T17:22:38.000Z,2.70
2022-09-01T17:25:10.022Z,2.65
2022-09-01T17:27:54.278Z,2.20
2022-09-01T17:30:22.194Z,2.55
2022-09-01T17:33:19.417Z,2.65
2022-09-01T17:36:18.718Z,3.13
2022-09-01T17:39:30.047Z,12.90
2022-09-01T17:42:02.162Z,4.47
2022-09-01T17:44:48.215Z,2.30
2022-09-01T17:47:43.655Z,3.25
2022-09-01T17:50:21.112Z,3.60
2022-09-01T17:52:52.507Z,2.92
2022-09-01T17:55:25.755Z,4.88
2022-09-01T17:58:19.884Z,2.93
2022-09-01T18:03:32.304Z,3.38
2022-09-01T18:06:10.023Z,3.67
2022-09-01T18:08:41.906Z,4.53
2022-09-01T18:11:34.942Z,2.75
2022-09-01T18:14:27.695Z,5.80
2022-09-01T18:17:03.871Z,3.20
2022-09-01T18:19:43.481Z,5.20
2022-09-01T18:22:24.572Z,2.80
2022-09-01T18:25:00.129Z,5.18
2022-09-01T18:28:04.190Z,3.25
2022-09-01T18:30:52.657Z,2.63
2022-09-01T18:33:27.493Z,3.33
2022-09-01T18:36:16.473Z,3.90
2022-09-01T18:45:37.250Z,2.95
2022-09-01T18:48:13.726Z,3.08
2022-09-01T18:50:54.572Z,2.42
2022-09-01T18:53:24.531Z,2.38
2022-09-01T18:56:15.347Z,2.33
2022-09-01T18:59:04.259Z,2.25
2022-09-01T19:01:36.750Z,2.80
2022-09-01T19:04:09.466Z,2.65
2022-09-01T19:06:49.976Z,2.40
2022-09-01T19:10:09.179Z,2.08
2022-09-01T19:13:08.787Z,2.08
2022-09-01T19:15:50.949Z,2.42
2022-09-01T19:18:31.165Z,1.90
2022-09-01T19:21:09.769Z,2.17
2022-09-01T19:23:55.319Z,2.08
2022-09-01T19:26:25.133Z,2.40
2022-09-01T19:29:04.792Z,1.85
2022-09-01T19:31:36.341Z,2.20
2022-09-01T19:34:17.696Z,1.70
2022-09-01T19:36:54.716Z,1.92
2022-09-01T19:39:28.852Z,1.90
2022-09-01T19:42:06.115Z,2.15
2022-09-01T19:44:55.066Z,2.10
2022-09-01T19:47:43.336Z,1.98
2022-09-01T19:50:21.165Z,1.92
2022-09-01T19:53:25.255Z,2.75
2022-09-01T19:56:24.121Z,2.55
2022-09-01T19:59:15.750Z,2.45
2022-09-01T20:01:57.751Z,2.72
2022-09-01T20:04:49.649Z,2.55
2022-09-01T20:07:51.215Z,2.38
2022-09-01T20:10:21.608Z,2.30
2022-09-01T20:13:25.824Z,2.00
2022-09-01T20:16:06.028Z,2.30
2022-09-01T20:18:39.294Z,2.13
2022-09-01T20:21:18.927Z,3.10
2022-09-01T20:23:50.987Z,2.58
2022-09-01T20:26:26.855Z,1.83
2022-09-01T20:29:03.283Z,2.47
2022-09-01T20:31:45.400Z,2.60
2022-09-01T20:34:29.312Z,2.00
2022-09-01T20:37:18.665Z,1.70
2022-09-01T20:40:01.371Z,2.03
2022-09-01T20:42:53.006Z,1.73
2022-09-01T20:45:27.104Z,2.35
2022-09-01T20:48:04.805Z,2.22
2022-09-01T20:51:00.782Z,1.70
2022-09-01T20:53:47.085Z,2.15
2022-09-01T20:56:37.815Z,1.77
2022-09-01T20:59:14.994Z,2.10
2022-09-01T21:01:55.889Z,1.98
2022-09-01T21:04:47.875Z,2.03
2022-09-01T21:07:40.030Z,2.05
2022-09-01T21:10:35.511Z,1.70
2022-09-01T21:13:26.647Z,1.60
2022-09-01T21:16:12.488Z,1.73
2022-09-01T21:19:11.205Z,1.95
2022-09-01T21:21:57.133Z,1.90
2022-09-01T21:24:24.163Z,1.77
2022-09-01T21:26:52.140Z,1.60
2022-09-01T21:29:29.560Z,1.77
2022-09-01T21:31:56.995Z,2.00
2022-09-01T21:34:24.128Z,1.70
2022-09-01T21:36:55.638Z,1.75
2022-09-01T21:39:23.811Z,1.90
2022-09-01T21:41:50.848Z,1.80
2022-09-01T21:44:17.847Z,1.90
2022-09-01T21:46:44.889Z,1.90
2022-09-01T21:49:14.230Z,2.38
2022-09-01T21:51:42.135Z,2.60
2022-09-01T21:54:09.419Z,2.00
2022-09-01T21:56:36.494Z,2.15
2022-09-01T21:59:04.159Z,2.30
2022-09-01T22:01:34.025Z,2.00
2022-09-01T22:04:04.333Z,2.50
2022-09-01T22:06:32.304Z,2.47
2022-09-01T22:09:20.238Z,2.50
2022-09-01T22:11:49.734Z,2.42
2022-09-01T22:14:16.850Z,2.53
2022-09-01T22:16:44.027Z,2.20
2022-09-01T22:19:11.045Z,1.75
2022-09-01T22:21:40.322Z,2.17
2022-09-01T22:24:07.832Z,2.50
2022-09-01T22:26:35.734Z,2.53
2022-09-01T22:29:07.123Z,2.25
2022-09-01T22:31:37.823Z,2.70
2022-09-01T22:34:05.986Z,2.35
2022-09-01T22:36:39.084Z,2.47
2022-09-01T22:39:08.844Z,2.08
2022-09-01T22:41:38.175Z,2.40
2022-09-01T22:44:06.410Z,2.65
2022-09-01T22:46:36.270Z,2.60
2022-09-01T22:49:04.065Z,2.42
2022-09-01T22:51:31.461Z,2.40
2022-09-01T22:53:58.758Z,2.30
2022-09-01T22:56:30.824Z,2.83
2022-09-01T22:59:01.872Z,2.17
2022-09-01T23:01:33.164Z,2.92
2022-09-01T23:04:02.072Z,2.05
2022-09-01T23:06:30.770Z,2.20
2022-09-01T23:08:59.472Z,2.65
2022-09-01T23:11:26.924Z,3.00
2022-09-01T23:13:54.854Z,2.85
2022-09-01T23:16:23.595Z,2.38
2022-09-01T23:18:51.678Z,2.08
2022-09-01T23:21:22.156Z,2.58
2022-09-01T23:23:50.738Z,2.28
2022-09-01T23:26:27.503Z,2.50
2022-09-01T23:28:55.054Z,2.38
2022-09-01T23:31:25.220Z,2.70
2022-09-01T23:33:53.339Z,2.47
2022-09-01T23:36:24.587Z,2.55
2022-09-01T23:38:53.390Z,2.58
2022-09-01T23:41:24.245Z,2.72
2022-09-01T23:43:55.332Z,3.20
2022-09-01T23:46:26.394Z,2.80
2022-09-01T23:48:54.095Z,2.50
2022-09-01T23:51:22.267Z,2.42
2022-09-01T23:53:49.391Z,3.22
2022-09-01T23:56:19.571Z,2.67
2022-09-01T23:58:46.787Z,3.00
